Weather at Charlotte-Monroe Executive Airport

Public forecast

Using degrees Fahrenheit for public forecast. Weather courtesy of forecast.io.

Current aviation weather report (METAR) for Charlotte-Monroe Executive Airport

Retrieved 2020/09/18 22:53 UTC (44 minutes ago):

KEQY 182253Z AUTO 03004KT 10SM CLR 22/17 A2997 RMK AO2 SLP151 T02220172

Closest aviation forecast (TAF) to Charlotte-Monroe Executive Airport

Closest forecast is Charlotte Douglas International Airport, 19.7 nm (36.5 km) NW. Retrieved 2020/09/18 18:39 UTC (5 hours ago):

TAF KCLT 181737Z 1818/1924 02010G17KT P6SM SCT030 BKN040 FM182000 02011KT P6SM BKN040 FM190000 02008KT P6SM SCT050 BKN250 FM190500 03009KT P6SM BKN050 FM190600 03009KT P6SM BKN060